Time;durP1;ratioP1;P1;durP2;ratioP2;P2;SDS_P1;SDS_P2;PMS_P1;PMS_P2;Temp;Humidity;BMP_temperature;BMP_pressure;BME280_temperature;BME280_humidity;BME280_pressure;Samples;Min_cycle;Max_cycle;Signal;HPM_P1;HPM_P2
2022/11/18 00:01:50;;;;;;;0.55;0.10;;;;;;;;;;5052164;28;20885;-87
2022/11/18 00:04:16;;;;;;;1.00;0.20;;;;;;;;;;5052496;28;20384;-87
2022/11/18 00:06:42;;;;;;;0.50;0.20;;;;;;;;;;5051435;28;20709;-88
2022/11/18 00:09:08;;;;;;;0.50;0.20;;;;;;;;;;5040562;28;20416;-87
2022/11/18 00:14:23;;;;;;;0.50;0.40;;;;;;;;;;5049503;28;20368;-87
2022/11/18 00:16:49;;;;;;;1.90;0.50;;;;;;;;;;5052168;28;20382;-87
2022/11/18 00:19:15;;;;;;;1.33;1.20;;;;;;;;;;5052180;28;20382;-87
2022/11/18 00:21:41;;;;;;;1.40;1.15;;;;;;;;;;5051954;28;20404;-87
2022/11/18 00:24:07;;;;;;;0.88;0.70;;;;;;;;;;5051920;28;20385;-87
2022/11/18 00:26:35;;;;;;;0.70;0.52;;;;;;;;;;5051736;28;20420;-87
2022/11/18 00:29:01;;;;;;;1.00;0.50;;;;;;;;;;5047126;28;20884;-87
2022/11/18 00:31:27;;;;;;;0.88;0.80;;;;;;;;;;5036236;28;20456;-86
2022/11/18 00:33:53;;;;;;;1.80;0.82;;;;;;;;;;5052008;28;20788;-86
2022/11/18 00:36:19;;;;;;;1.60;1.42;;;;;;;;;;5051847;28;20386;-87
2022/11/18 00:38:45;;;;;;;1.88;1.40;;;;;;;;;;5042605;28;20412;-87
2022/11/18 00:41:12;;;;;;;1.70;1.40;;;;;;;;;;5045885;28;20420;-86
2022/11/18 00:43:38;;;;;;;1.70;1.20;;;;;;;;;;5031972;28;20434;-87
2022/11/18 00:46:05;;;;;;;0.73;0.43;;;;;;;;;;5049300;28;20389;-86
2022/11/18 00:48:31;;;;;;;0.50;0.30;;;;;;;;;;5057972;28;20406;-87
2022/11/18 00:50:59;;;;;;;0.60;0.40;;;;;;;;;;5054303;28;20469;-87
2022/11/18 00:53:26;;;;;;;1.33;0.80;;;;;;;;;;5069365;28;20370;-84
2022/11/18 00:55:52;;;;;;;0.80;0.60;;;;;;;;;;5072182;28;20751;-86
2022/11/18 00:58:18;;;;;;;0.60;0.50;;;;;;;;;;5055025;28;20392;-87
2022/11/18 01:00:47;;;;;;;0.60;0.50;;;;;;;;;;5053784;28;20389;-87
2022/11/18 01:03:14;;;;;;;1.10;0.50;;;;;;;;;;5052466;28;20381;-87
2022/11/18 01:05:40;;;;;;;0.40;0.40;;;;;;;;;;5051118;28;20894;-87
2022/11/18 01:08:06;;;;;;;0.75;0.50;;;;;;;;;;5044610;28;20927;-87
2022/11/18 01:10:33;;;;;;;0.80;0.50;;;;;;;;;;5050340;28;20393;-88
2022/11/18 01:15:44;;;;;;;1.38;0.60;;;;;;;;;;5051866;28;20873;-88
2022/11/18 01:18:10;;;;;;;0.68;0.50;;;;;;;;;;5050202;28;20404;-88
2022/11/18 01:20:36;;;;;;;0.60;0.60;;;;;;;;;;5051215;28;20886;-87
2022/11/18 01:23:02;;;;;;;0.70;0.70;;;;;;;;;;5051565;28;20378;-88
2022/11/18 01:25:29;;;;;;;0.80;0.60;;;;;;;;;;5051511;28;20377;-87
2022/11/18 01:27:55;;;;;;;0.50;0.50;;;;;;;;;;5050939;28;20437;-88
2022/11/18 01:30:22;;;;;;;0.65;0.60;;;;;;;;;;5051532;28;20914;-87
2022/11/18 01:32:48;;;;;;;0.77;0.40;;;;;;;;;;5051277;28;20839;-87
2022/11/18 01:35:14;;;;;;;1.27;0.68;;;;;;;;;;5051361;28;20385;-87
2022/11/18 01:37:40;;;;;;;0.70;0.50;;;;;;;;;;5040562;28;20432;-87
2022/11/18 01:40:07;;;;;;;1.27;0.60;;;;;;;;;;5023777;28;20385;-88
2022/11/18 01:42:34;;;;;;;0.93;0.60;;;;;;;;;;5054122;28;20381;-87
2022/11/18 01:45:09;;;;;;;0.50;0.50;;;;;;;;;;5054816;28;20850;-88
2022/11/18 01:47:39;;;;;;;1.10;0.60;;;;;;;;;;5054863;28;20401;-87
2022/11/18 01:50:06;;;;;;;0.40;0.40;;;;;;;;;;5055314;28;20846;-86
2022/11/18 01:52:33;;;;;;;1.13;0.60;;;;;;;;;;5054880;28;20439;-87
2022/11/18 01:55:03;;;;;;;0.57;0.57;;;;;;;;;;5054734;28;20388;-86
2022/11/18 01:57:31;;;;;;;0.95;0.60;;;;;;;;;;5049451;28;20789;-86
2022/11/18 01:59:57;;;;;;;0.52;0.52;;;;;;;;;;5054494;28;20467;-87
2022/11/18 02:02:23;;;;;;;0.60;0.40;;;;;;;;;;5054601;28;20424;-87
2022/11/18 02:04:51;;;;;;;0.98;0.50;;;;;;;;;;5054763;28;20435;-87
2022/11/18 02:07:18;;;;;;;0.90;0.50;;;;;;;;;;5053941;28;20392;-86
2022/11/18 02:09:44;;;;;;;1.00;0.60;;;;;;;;;;5039684;28;20391;-87
2022/11/18 02:12:11;;;;;;;1.30;0.40;;;;;;;;;;5044618;28;20393;-87
2022/11/18 02:14:39;;;;;;;2.50;0.50;;;;;;;;;;5053454;28;20727;-86
2022/11/18 02:17:13;;;;;;;1.52;0.70;;;;;;;;;;5054730;28;20377;-87
2022/11/18 02:19:58;;;;;;;1.30;0.50;;;;;;;;;;5042115;28;20388;-86
2022/11/18 02:22:24;;;;;;;0.70;0.40;;;;;;;;;;5045661;28;20379;-86
2022/11/18 02:24:50;;;;;;;1.05;0.50;;;;;;;;;;5024420;28;20419;-86
2022/11/18 02:27:44;;;;;;;2.13;0.45;;;;;;;;;;5047670;28;20392;-86
2022/11/18 02:30:11;;;;;;;0.38;0.32;;;;;;;;;;5043802;28;20441;-86
2022/11/18 02:32:48;;;;;;;0.95;0.40;;;;;;;;;;5054011;28;20903;-86
2022/11/18 02:35:27;;;;;;;1.65;0.47;;;;;;;;;;5054025;28;20850;-86
2022/11/18 02:37:58;;;;;;;0.50;0.37;;;;;;;;;;5045645;28;20439;-87
2022/11/18 02:40:29;;;;;;;1.25;0.30;;;;;;;;;;5033484;28;20768;-84
2022/11/18 02:43:10;;;;;;;1.38;0.30;;;;;;;;;;5034604;28;20453;-85
2022/11/18 02:45:37;;;;;;;1.20;0.35;;;;;;;;;;5034487;28;20484;-86
2022/11/18 02:48:07;;;;;;;1.00;0.40;;;;;;;;;;5033870;28;20407;-86
2022/11/18 02:50:34;;;;;;;0.98;0.40;;;;;;;;;;5048818;28;20926;-85
2022/11/18 02:53:02;;;;;;;0.80;0.30;;;;;;;;;;5036454;28;20387;-85
2022/11/18 02:55:31;;;;;;;0.47;0.30;;;;;;;;;;5035076;28;20391;-87
2022/11/18 02:57:57;;;;;;;0.50;0.30;;;;;;;;;;5039481;28;20434;-87
2022/11/18 03:00:23;;;;;;;1.08;0.50;;;;;;;;;;5035761;28;20418;-85
2022/11/18 03:02:49;;;;;;;1.20;0.30;;;;;;;;;;5050954;28;20530;-85
2022/11/18 03:05:27;;;;;;;1.00;0.30;;;;;;;;;;5038701;28;20386;-85
2022/11/18 03:07:59;;;;;;;0.38;0.30;;;;;;;;;;5038991;28;20467;-85
2022/11/18 03:10:31;;;;;;;0.65;0.30;;;;;;;;;;5036601;28;20383;-86
2022/11/18 03:13:11;;;;;;;0.88;0.30;;;;;;;;;;5036967;28;21211;-84
2022/11/18 03:15:42;;;;;;;1.00;0.40;;;;;;;;;;5030631;28;20449;-84
2022/11/18 03:18:20;;;;;;;0.70;0.30;;;;;;;;;;5036092;28;20414;-85
2022/11/18 03:20:49;;;;;;;0.90;0.30;;;;;;;;;;5050053;28;20523;-85
2022/11/18 03:23:29;;;;;;;1.15;0.30;;;;;;;;;;5018386;28;20400;-85
2022/11/18 03:26:03;;;;;;;0.63;0.20;;;;;;;;;;5035430;28;20793;-85
2022/11/18 03:28:38;;;;;;;0.65;0.30;;;;;;;;;;5036345;28;20465;-85
2022/11/18 03:31:17;;;;;;;0.50;0.30;;;;;;;;;;5045831;28;20395;-85
2022/11/18 03:33:51;;;;;;;0.70;0.52;;;;;;;;;;5050734;28;20518;-85
2022/11/18 03:36:20;;;;;;;1.20;0.50;;;;;;;;;;5051025;28;20914;-85
2022/11/18 03:38:50;;;;;;;2.53;0.70;;;;;;;;;;5050964;28;20397;-85
2022/11/18 03:41:18;;;;;;;1.27;0.50;;;;;;;;;;5050853;28;20417;-85
2022/11/18 03:43:52;;;;;;;1.00;0.50;;;;;;;;;;5050645;28;20381;-84
2022/11/18 03:46:20;;;;;;;0.82;0.50;;;;;;;;;;5051511;28;20373;-85
2022/11/18 03:48:53;;;;;;;1.02;0.40;;;;;;;;;;5052629;28;20424;-85
2022/11/18 03:51:32;;;;;;;0.70;0.40;;;;;;;;;;5052629;28;20992;-84
2022/11/18 03:54:02;;;;;;;0.80;0.30;;;;;;;;;;5052505;28;20376;-85
2022/11/18 03:56:34;;;;;;;1.58;0.50;;;;;;;;;;5046413;28;20867;-85
2022/11/18 03:59:00;;;;;;;1.60;0.30;;;;;;;;;;5050151;28;20392;-84
2022/11/18 04:01:39;;;;;;;0.77;0.30;;;;;;;;;;5052241;28;20754;-85
2022/11/18 04:04:06;;;;;;;0.73;0.32;;;;;;;;;;5052171;28;20412;-85
2022/11/18 04:06:52;;;;;;;1.55;0.30;;;;;;;;;;5047447;28;20394;-85
2022/11/18 04:09:31;;;;;;;0.60;0.20;;;;;;;;;;5025634;28;20905;-85
2022/11/18 04:12:02;;;;;;;0.80;0.30;;;;;;;;;;5044449;28;20370;-85
2022/11/18 04:14:38;;;;;;;0.88;0.32;;;;;;;;;;5047212;28;20410;-85
2022/11/18 04:17:08;;;;;;;0.50;0.28;;;;;;;;;;5044273;28;20384;-85
2022/11/18 04:19:34;;;;;;;0.85;0.30;;;;;;;;;;5038498;28;20519;-85
2022/11/18 04:22:00;;;;;;;1.40;0.30;;;;;;;;;;5065445;28;20386;-85
2022/11/18 04:24:26;;;;;;;0.20;0.20;;;;;;;;;;5064758;28;20387;-84
2022/11/18 04:26:52;;;;;;;0.50;0.20;;;;;;;;;;5063630;28;20396;-84
2022/11/18 04:29:18;;;;;;;0.65;0.25;;;;;;;;;;5072539;28;20409;-84
2022/11/18 04:31:44;;;;;;;0.20;0.20;;;;;;;;;;5062249;28;20443;-85
2022/11/18 04:34:10;;;;;;;0.60;0.30;;;;;;;;;;5055160;28;20487;-84
2022/11/18 04:36:36;;;;;;;1.13;0.50;;;;;;;;;;5044600;28;20396;-84
2022/11/18 04:39:02;;;;;;;0.50;0.30;;;;;;;;;;5016937;28;20455;-85
2022/11/18 04:44:13;;;;;;;0.40;0.30;;;;;;;;;;5027546;28;20377;-84
2022/11/18 04:46:42;;;;;;;0.75;0.40;;;;;;;;;;5050768;28;20778;-84
2022/11/18 04:49:09;;;;;;;0.45;0.30;;;;;;;;;;5052064;28;20802;-84
2022/11/18 04:51:35;;;;;;;1.33;0.40;;;;;;;;;;5036817;28;20466;-84
2022/11/18 04:54:02;;;;;;;0.50;0.30;;;;;;;;;;5050867;28;20774;-84
2022/11/18 04:56:29;;;;;;;0.50;0.22;;;;;;;;;;5045764;28;20730;-84
2022/11/18 04:58:54;;;;;;;0.83;0.23;;;;;;;;;;5048640;28;20454;-84
2022/11/18 05:01:21;;;;;;;0.60;0.20;;;;;;;;;;5051483;28;20397;-84
2022/11/18 05:03:47;;;;;;;1.30;0.30;;;;;;;;;;5051754;28;20469;-84
2022/11/18 05:06:13;;;;;;;0.55;0.20;;;;;;;;;;5049994;28;20688;-84
2022/11/18 05:08:39;;;;;;;0.20;0.20;;;;;;;;;;5044881;28;20415;-84
2022/11/18 05:13:50;;;;;;;0.30;0.20;;;;;;;;;;5049809;28;20862;-84
2022/11/18 05:16:16;;;;;;;0.10;0.10;;;;;;;;;;5045091;28;20497;-85
2022/11/18 05:18:42;;;;;;;0.60;0.15;;;;;;;;;;5047595;28;20859;-85
2022/11/18 05:21:08;;;;;;;0.40;0.22;;;;;;;;;;5055473;28;20389;-86
2022/11/18 05:23:34;;;;;;;0.70;0.20;;;;;;;;;;5055552;28;20453;-85
2022/11/18 05:26:04;;;;;;;1.75;0.30;;;;;;;;;;5053284;28;20869;-85
2022/11/18 05:28:30;;;;;;;0.10;0.10;;;;;;;;;;5053881;28;20437;-85
2022/11/18 05:30:56;;;;;;;0.10;0.10;;;;;;;;;;5055590;28;20762;-84
2022/11/18 05:33:22;;;;;;;1.02;0.70;;;;;;;;;;5055340;28;20456;-84
2022/11/18 05:35:48;;;;;;;0.80;0.60;;;;;;;;;;5037274;28;20982;-85
2022/11/18 05:38:14;;;;;;;0.90;0.70;;;;;;;;;;5049967;28;20385;-85
2022/11/18 05:40:42;;;;;;;0.57;0.50;;;;;;;;;;5056086;28;20401;-85
2022/11/18 05:43:11;;;;;;;0.90;0.60;;;;;;;;;;5055130;28;20500;-85
2022/11/18 05:45:37;;;;;;;0.30;0.30;;;;;;;;;;5054965;28;20421;-85
2022/11/18 05:48:04;;;;;;;0.40;0.40;;;;;;;;;;5054946;28;20398;-85
2022/11/18 05:50:31;;;;;;;0.40;0.30;;;;;;;;;;5054915;28;20384;-85
2022/11/18 05:52:57;;;;;;;0.40;0.22;;;;;;;;;;5054907;28;20858;-85
2022/11/18 05:55:25;;;;;;;1.70;0.30;;;;;;;;;;5054874;28;20730;-85
2022/11/18 05:57:51;;;;;;;0.20;0.20;;;;;;;;;;5044004;28;20412;-87
2022/11/18 06:00:17;;;;;;;0.20;0.20;;;;;;;;;;5054530;28;20385;-85
2022/11/18 06:02:44;;;;;;;0.40;0.10;;;;;;;;;;5042822;28;20398;-84
2022/11/18 06:05:10;;;;;;;0.38;0.10;;;;;;;;;;5054574;28;20386;-85
2022/11/18 06:07:39;;;;;;;0.20;0.20;;;;;;;;;;5045097;28;20420;-85
2022/11/18 06:10:05;;;;;;;0.17;0.10;;;;;;;;;;5044190;28;20834;-85
2022/11/18 06:12:33;;;;;;;0.20;0.20;;;;;;;;;;5050157;28;20902;-84
2022/11/18 06:15:09;;;;;;;0.20;0.20;;;;;;;;;;5054448;28;20735;-84
2022/11/18 06:17:39;;;;;;;0.30;0.10;;;;;;;;;;5042337;28;20495;-84
2022/11/18 06:20:05;;;;;;;0.13;0.10;;;;;;;;;;5054481;28;20423;-85
2022/11/18 06:22:31;;;;;;;0.47;0.20;;;;;;;;;;5054380;28;20439;-87
2022/11/18 06:24:57;;;;;;;0.35;0.20;;;;;;;;;;5054354;28;20472;-87
2022/11/18 06:27:23;;;;;;;0.20;0.20;;;;;;;;;;5049633;28;20450;-85
2022/11/18 06:29:49;;;;;;;0.28;0.20;;;;;;;;;;5053839;28;20844;-84
2022/11/18 06:32:15;;;;;;;0.47;0.22;;;;;;;;;;5046678;28;20407;-86
2022/11/18 06:34:41;;;;;;;0.68;0.40;;;;;;;;;;5047797;28;20444;-85
2022/11/18 06:37:14;;;;;;;0.50;0.50;;;;;;;;;;5052951;28;20465;-85
2022/11/18 06:39:40;;;;;;;0.90;0.47;;;;;;;;;;5054276;28;20431;-85
2022/11/18 06:42:05;;;;;;;1.33;0.30;;;;;;;;;;5047407;28;20473;-84
2022/11/18 06:44:31;;;;;;;0.35;0.30;;;;;;;;;;5044375;28;20884;-84
2022/11/18 06:46:58;;;;;;;0.40;0.40;;;;;;;;;;5043250;28;20397;-83
2022/11/18 06:49:25;;;;;;;0.20;0.20;;;;;;;;;;5051711;28;20429;-83
2022/11/18 06:51:51;;;;;;;0.20;0.20;;;;;;;;;;5053726;28;20408;-84
2022/11/18 06:54:17;;;;;;;0.30;0.20;;;;;;;;;;5041062;28;20456;-85
2022/11/18 06:56:43;;;;;;;0.17;0.17;;;;;;;;;;5048768;28;20427;-85
2022/11/18 06:59:09;;;;;;;0.40;0.40;;;;;;;;;;5053851;28;20795;-84
2022/11/18 07:01:36;;;;;;;0.50;0.30;;;;;;;;;;5046851;28;20494;-84
2022/11/18 07:04:02;;;;;;;0.70;0.70;;;;;;;;;;5051476;28;20377;-83
2022/11/18 07:06:30;;;;;;;1.92;1.17;;;;;;;;;;5053492;28;20427;-83
2022/11/18 07:08:56;;;;;;;0.90;0.70;;;;;;;;;;5040680;28;20413;-86
2022/11/18 07:11:23;;;;;;;1.92;1.00;;;;;;;;;;5051736;28;20873;-83
2022/11/18 07:13:49;;;;;;;0.45;0.45;;;;;;;;;;5042588;28;20858;-83
2022/11/18 07:16:18;;;;;;;0.20;0.20;;;;;;;;;;5053502;28;20707;-85
2022/11/18 07:18:44;;;;;;;0.65;0.40;;;;;;;;;;5053331;28;20437;-84
2022/11/18 07:21:11;;;;;;;0.55;0.30;;;;;;;;;;5049394;28;20795;-84
2022/11/18 07:23:37;;;;;;;0.30;0.30;;;;;;;;;;5053220;28;20385;-86
2022/11/18 07:26:04;;;;;;;0.40;0.30;;;;;;;;;;5039972;28;20940;-85
2022/11/18 07:28:30;;;;;;;0.40;0.40;;;;;;;;;;5050955;28;20890;-85
2022/11/18 07:31:03;;;;;;;0.43;0.20;;;;;;;;;;5052986;28;20444;-84
2022/11/18 07:33:30;;;;;;;0.45;0.28;;;;;;;;;;5053219;28;20780;-87
2022/11/18 07:36:00;;;;;;;0.20;0.20;;;;;;;;;;5053037;28;20391;-85
2022/11/18 07:38:26;;;;;;;0.40;0.30;;;;;;;;;;5052887;28;20982;-85
2022/11/18 07:40:52;;;;;;;0.30;0.30;;;;;;;;;;5052693;28;20476;-85
2022/11/18 07:43:18;;;;;;;1.15;0.30;;;;;;;;;;5052816;28;20724;-84
2022/11/18 07:45:44;;;;;;;3.03;0.50;;;;;;;;;;5047451;28;20391;-86
2022/11/18 07:48:10;;;;;;;0.90;0.50;;;;;;;;;;5043953;28;20412;-85
2022/11/18 07:50:35;;;;;;;1.40;0.40;;;;;;;;;;5049478;28;20410;-85
2022/11/18 07:53:01;;;;;;;0.40;0.40;;;;;;;;;;5046495;28;20389;-86
2022/11/18 07:55:27;;;;;;;0.95;0.63;;;;;;;;;;5066978;28;20369;-86
2022/11/18 07:57:55;;;;;;;0.60;0.60;;;;;;;;;;5054569;28;20420;-86
2022/11/18 08:00:21;;;;;;;0.60;0.60;;;;;;;;;;5071047;28;20384;-86
2022/11/18 08:02:49;;;;;;;1.20;0.60;;;;;;;;;;5073159;28;20397;-85
2022/11/18 08:05:15;;;;;;;0.80;0.60;;;;;;;;;;5062298;28;20430;-85
2022/11/18 08:07:41;;;;;;;0.60;0.50;;;;;;;;;;5057438;28;20432;-86
2022/11/18 08:10:07;;;;;;;0.50;0.47;;;;;;;;;;5055288;28;20370;-87
2022/11/18 08:12:33;;;;;;;2.70;0.50;;;;;;;;;;5050612;28;20451;-89
2022/11/18 08:14:59;;;;;;;1.10;0.40;;;;;;;;;;5036684;28;20811;-87
2022/11/18 08:17:25;;;;;;;1.00;0.55;;;;;;;;;;5042126;28;20387;-90
2022/11/18 08:19:51;;;;;;;1.45;0.50;;;;;;;;;;5040644;28;20454;-89
2022/11/18 08:22:19;;;;;;;2.05;0.60;;;;;;;;;;5050665;28;20370;-90
2022/11/18 08:24:46;;;;;;;1.10;0.80;;;;;;;;;;5052551;28;20380;-90
2022/11/18 08:27:12;;;;;;;1.23;0.70;;;;;;;;;;5050126;28;20385;-88
2022/11/18 08:29:38;;;;;;;1.13;0.60;;;;;;;;;;5051975;28;20437;-89
2022/11/18 08:32:05;;;;;;;0.68;0.60;;;;;;;;;;5051678;28;20467;-89
2022/11/18 08:34:31;;;;;;;1.10;0.50;;;;;;;;;;5052289;28;20730;-89
2022/11/18 08:36:57;;;;;;;0.90;0.47;;;;;;;;;;5052012;28;20384;-89
2022/11/18 08:39:23;;;;;;;0.60;0.47;;;;;;;;;;5052034;28;20394;-92
2022/11/18 08:41:49;;;;;;;1.30;0.60;;;;;;;;;;5051903;28;20439;-87
2022/11/18 08:44:16;;;;;;;1.10;0.77;;;;;;;;;;5050823;28;20385;-90
2022/11/18 08:46:46;;;;;;;1.75;0.65;;;;;;;;;;5037288;28;20466;-88
2022/11/18 08:49:12;;;;;;;1.60;1.23;;;;;;;;;;5047551;28;20410;-87
2022/11/18 08:51:38;;;;;;;0.95;0.80;;;;;;;;;;5046645;28;20381;-88
2022/11/18 08:54:04;;;;;;;1.77;1.00;;;;;;;;;;5053064;28;20398;-91
2022/11/18 08:56:30;;;;;;;1.53;0.50;;;;;;;;;;5044196;28;20938;-90
2022/11/18 08:58:56;;;;;;;0.95;0.70;;;;;;;;;;5050468;28;20420;-88
2022/11/18 09:01:22;;;;;;;1.00;1.00;;;;;;;;;;5051451;28;20394;-89
2022/11/18 09:03:49;;;;;;;1.77;1.55;;;;;;;;;;5041040;28;20389;-89
2022/11/18 09:06:23;;;;;;;1.50;1.10;;;;;;;;;;5051704;28;20535;-89
2022/11/18 09:08:50;;;;;;;1.10;0.90;;;;;;;;;;5051512;28;20815;-88
2022/11/18 09:11:17;;;;;;;0.85;0.70;;;;;;;;;;5051532;28;20420;-89
2022/11/18 09:13:43;;;;;;;0.85;0.40;;;;;;;;;;5051650;28;20385;-90
2022/11/18 09:16:09;;;;;;;0.55;0.40;;;;;;;;;;5051343;28;20381;-88
2022/11/18 09:18:35;;;;;;;0.75;0.60;;;;;;;;;;5051635;28;20381;-88
2022/11/18 09:21:05;;;;;;;0.68;0.40;;;;;;;;;;5051482;28;20404;-88
2022/11/18 09:23:32;;;;;;;1.13;0.70;;;;;;;;;;5051519;28;20392;-88
2022/11/18 09:25:59;;;;;;;1.58;0.70;;;;;;;;;;5049496;28;20468;-88
2022/11/18 09:28:26;;;;;;;2.17;0.70;;;;;;;;;;5051092;28;20411;-88
2022/11/18 09:30:52;;;;;;;0.70;0.50;;;;;;;;;;5051224;28;20420;-89
2022/11/18 09:33:18;;;;;;;1.00;0.55;;;;;;;;;;5051490;28;20405;-89
2022/11/18 09:35:44;;;;;;;0.90;0.57;;;;;;;;;;5040083;28;20384;-90
2022/11/18 09:38:10;;;;;;;1.10;0.60;;;;;;;;;;5033406;28;20386;-91
2022/11/18 09:40:56;;;;;;;0.83;0.53;;;;;;;;;;5051373;28;20870;-89
2022/11/18 09:43:30;;;;;;;1.55;0.70;;;;;;;;;;5051216;28;20916;-89
2022/11/18 09:46:02;;;;;;;2.60;0.52;;;;;;;;;;5051187;28;20420;-90
2022/11/18 09:51:12;;;;;;;0.80;0.60;;;;;;;;;;5051247;28;20404;-88
2022/11/18 09:53:44;;;;;;;0.90;0.60;;;;;;;;;;5051214;28;20378;-88
2022/11/18 09:56:16;;;;;;;0.93;0.70;;;;;;;;;;5046501;28;20387;-90
2022/11/18 09:58:44;;;;;;;0.80;0.60;;;;;;;;;;5048086;28;20387;-90
2022/11/18 10:01:11;;;;;;;2.90;0.75;;;;;;;;;;5051053;28;20438;-90
2022/11/18 10:03:38;;;;;;;1.98;0.80;;;;;;;;;;5052385;28;20389;-91
2022/11/18 10:06:25;;;;;;;0.88;0.60;;;;;;;;;;5054738;28;20378;-90
2022/11/18 10:09:05;;;;;;;1.60;0.60;;;;;;;;;;5051167;28;20402;-89
2022/11/18 10:11:34;;;;;;;0.80;0.50;;;;;;;;;;5054477;28;20457;-89
2022/11/18 10:14:26;;;;;;;0.73;0.50;;;;;;;;;;5054456;28;20425;-90
2022/11/18 10:16:58;;;;;;;1.30;0.50;;;;;;;;;;5054526;28;21111;-90
2022/11/18 10:19:28;;;;;;;1.85;0.57;;;;;;;;;;5054511;28;20511;-90
2022/11/18 10:21:56;;;;;;;2.40;0.63;;;;;;;;;;5054298;28;20384;-91
2022/11/18 10:24:24;;;;;;;1.50;0.95;;;;;;;;;;5054431;28;20385;-92
2022/11/18 10:26:57;;;;;;;1.20;0.73;;;;;;;;;;5051887;28;20895;-91
2022/11/18 10:29:23;;;;;;;0.60;0.57;;;;;;;;;;5054063;28;20568;-91
2022/11/18 10:32:13;;;;;;;0.60;0.60;;;;;;;;;;5054062;28;20374;-91
2022/11/18 10:34:52;;;;;;;1.00;0.70;;;;;;;;;;5051106;28;20874;-91
2022/11/18 10:37:25;;;;;;;0.75;0.60;;;;;;;;;;5054139;28;20383;-90
2022/11/18 10:39:55;;;;;;;1.15;0.70;;;;;;;;;;5054005;28;20514;-91
2022/11/18 10:42:24;;;;;;;1.98;0.75;;;;;;;;;;5044529;28;20913;-89
2022/11/18 10:44:50;;;;;;;1.10;0.60;;;;;;;;;;5048632;28;20393;-89
2022/11/18 10:47:22;;;;;;;1.10;0.60;;;;;;;;;;5034920;28;20382;-90
2022/11/18 10:49:49;;;;;;;2.67;0.47;;;;;;;;;;5047797;28;20377;-91
2022/11/18 10:52:15;;;;;;;0.80;0.45;;;;;;;;;;5053768;28;20377;-90
2022/11/18 10:54:41;;;;;;;0.43;0.40;;;;;;;;;;5053959;28;20374;-89
2022/11/18 10:57:13;;;;;;;1.20;0.90;;;;;;;;;;5044951;28;20365;-91
2022/11/18 10:59:41;;;;;;;1.17;0.50;;;;;;;;;;5053702;28;20868;-89
2022/11/18 11:02:13;;;;;;;0.70;0.50;;;;;;;;;;5053435;28;20453;-90
2022/11/18 11:04:40;;;;;;;0.30;0.25;;;;;;;;;;5053716;28;20429;-89
2022/11/18 11:07:16;;;;;;;0.45;0.40;;;;;;;;;;5053745;28;20527;-90
2022/11/18 11:09:42;;;;;;;0.82;0.40;;;;;;;;;;5048246;28;20460;-91
2022/11/18 11:12:17;;;;;;;0.35;0.35;;;;;;;;;;5045378;28;20715;-90
2022/11/18 11:14:45;;;;;;;0.52;0.50;;;;;;;;;;5052752;28;20382;-89
2022/11/18 11:17:13;;;;;;;0.57;0.45;;;;;;;;;;5053464;28;20409;-89
2022/11/18 11:20:03;;;;;;;1.00;0.40;;;;;;;;;;5039454;28;20389;-91
2022/11/18 11:22:29;;;;;;;0.75;0.75;;;;;;;;;;5044523;28;20512;-90
2022/11/18 11:24:55;;;;;;;0.30;0.30;;;;;;;;;;5044654;28;20452;-90
2022/11/18 11:27:24;;;;;;;0.38;0.30;;;;;;;;;;5061878;28;20385;-92
2022/11/18 11:30:07;;;;;;;1.10;0.50;;;;;;;;;;5050705;28;20396;-90
2022/11/18 11:32:33;;;;;;;1.00;0.50;;;;;;;;;;5054850;28;20364;-89
2022/11/18 11:34:59;;;;;;;1.23;0.70;;;;;;;;;;5053446;28;20882;-89
2022/11/18 11:37:34;;;;;;;0.90;0.50;;;;;;;;;;5031779;28;20396;-90
2022/11/18 11:40:00;;;;;;;0.50;0.30;;;;;;;;;;5027322;28;20403;-90
2022/11/18 11:42:44;;;;;;;0.55;0.50;;;;;;;;;;5018932;28;20943;-87
2022/11/18 11:45:17;;;;;;;0.55;0.32;;;;;;;;;;5020206;28;20511;-90
2022/11/18 11:48:02;;;;;;;1.02;0.70;;;;;;;;;;5020087;28;20415;-90
2022/11/18 11:50:52;;;;;;;1.08;0.73;;;;;;;;;;5030369;28;20728;-89
2022/11/18 11:53:23;;;;;;;2.33;0.63;;;;;;;;;;5018602;28;20850;-89
2022/11/18 11:55:49;;;;;;;0.60;0.30;;;;;;;;;;5027570;28;20387;-90
2022/11/18 11:58:27;;;;;;;0.98;0.50;;;;;;;;;;5041797;28;20383;-90
2022/11/18 12:01:00;;;;;;;0.60;0.40;;;;;;;;;;5024096;28;20475;-90
2022/11/18 12:03:45;;;;;;;0.70;0.50;;;;;;;;;;5041412;28;20725;-90
2022/11/18 12:06:11;;;;;;;1.38;0.55;;;;;;;;;;5040692;28;20429;-90
2022/11/18 12:08:38;;;;;;;0.70;0.40;;;;;;;;;;5040393;28;20468;-91
2022/11/18 12:11:15;;;;;;;0.50;0.50;;;;;;;;;;5038719;28;20387;-91
2022/11/18 12:14:13;;;;;;;0.85;0.40;;;;;;;;;;5045700;28;20422;-90
2022/11/18 12:16:46;;;;;;;0.60;0.50;;;;;;;;;;5030406;28;20390;-93
2022/11/18 12:19:13;;;;;;;1.30;0.90;;;;;;;;;;5047707;28;20853;-92
2022/11/18 12:40:14;;;;;;;0.63;0.57;;;;;;;;;;5836091;22;20860;-90
2022/11/18 12:45:43;;;;;;;0.60;0.57;;;;;;;;;;5041882;28;20374;-91
2022/11/18 12:48:41;;;;;;;;;;;;;;;;;;;;;
2022/11/18 13:27:50;;;;;;;1.30;0.98;;;;;;;;;;5118911;22;21005;-91
2022/11/18 14:03:44;;;;;;;1.20;0.80;;;;;;;;;;5006821;28;20503;-91
2022/11/18 14:06:31;;;;;;;0.97;0.67;;;;;;;;;;5029276;28;20379;-92
2022/11/18 14:09:35;;;;;;;1.50;1.00;;;;;;;;;;4997355;28;20479;-92
2022/11/18 14:12:21;;;;;;;0.80;0.80;;;;;;;;;;5006266;28;20395;-92
2022/11/18 14:14:47;;;;;;;1.58;0.90;;;;;;;;;;5018494;28;20822;-93
2022/11/18 14:17:38;;;;;;;1.67;1.23;;;;;;;;;;5012902;28;20377;-93
2022/11/18 14:23:50;;;;;;;1.33;0.95;;;;;;;;;;5014421;28;20368;-92
2022/11/18 14:26:28;;;;;;;1.00;0.70;;;;;;;;;;4986482;28;20396;-92
2022/11/18 14:29:49;;;;;;;1.10;0.80;;;;;;;;;;4991674;28;20482;-93
2022/11/18 14:32:35;;;;;;;1.40;0.98;;;;;;;;;;5547225;22;20420;-91
2022/11/18 15:03:19;;;;;;;2.35;1.35;;;;;;;;;;5238349;22;20427;-92
2022/11/18 15:06:03;;;;;;;1.30;0.73;;;;;;;;;;5111902;27;20422;-92
2022/11/18 15:12:02;;;;;;;2.28;1.20;;;;;;;;;;5052796;28;20373;-91
2022/11/18 15:17:35;;;;;;;1.73;1.00;;;;;;;;;;4947164;29;20469;-90
2022/11/18 15:20:03;;;;;;;2.10;1.30;;;;;;;;;;5009101;28;20406;-93
2022/11/18 15:22:29;;;;;;;1.92;1.30;;;;;;;;;;5033999;28;20365;-91
2022/11/18 15:24:55;;;;;;;3.55;1.40;;;;;;;;;;5038694;28;20397;-91
2022/11/18 15:27:21;;;;;;;5.05;2.55;;;;;;;;;;5019226;28;20435;-91
2022/11/18 15:29:49;;;;;;;6.82;2.90;;;;;;;;;;5014308;28;20419;-91
2022/11/18 15:32:15;;;;;;;2.17;0.73;;;;;;;;;;5014913;28;20439;-92
2022/11/18 15:34:41;;;;;;;2.92;1.52;;;;;;;;;;5014163;28;20756;-91
2022/11/18 15:37:10;;;;;;;3.80;1.73;;;;;;;;;;5012123;28;20442;-91
2022/11/18 15:39:36;;;;;;;3.78;2.60;;;;;;;;;;5010487;28;20524;-92
2022/11/18 15:42:02;;;;;;;7.43;2.23;;;;;;;;;;5011142;28;20468;-90
2022/11/18 15:44:28;;;;;;;4.13;2.05;;;;;;;;;;5009602;28;20384;-92
2022/11/18 15:46:56;;;;;;;4.13;2.10;;;;;;;;;;5007807;28;20392;-92
2022/11/18 15:49:22;;;;;;;2.92;1.65;;;;;;;;;;5015318;28;20407;-91
2022/11/18 15:51:48;;;;;;;3.17;2.03;;;;;;;;;;5104361;27;20381;-91
2022/11/18 15:54:14;;;;;;;1.77;1.40;;;;;;;;;;5117575;27;20916;-92
2022/11/18 15:56:40;;;;;;;2.53;1.60;;;;;;;;;;5146905;27;20375;-93
2022/11/18 15:59:11;;;;;;;2.25;1.42;;;;;;;;;;5126329;27;20388;-92
2022/11/18 16:01:38;;;;;;;2.38;1.20;;;;;;;;;;5147665;27;20386;-93
2022/11/18 16:04:05;;;;;;;3.33;1.20;;;;;;;;;;5134393;27;20389;-92
2022/11/18 16:06:31;;;;;;;2.15;1.23;;;;;;;;;;5143408;27;20917;-93
2022/11/18 16:09:00;;;;;;;1.90;1.27;;;;;;;;;;5125705;27;20394;-92
2022/11/18 16:14:12;;;;;;;4.40;2.88;;;;;;;;;;5125762;27;20365;-92
2022/11/18 16:16:39;;;;;;;4.53;3.63;;;;;;;;;;5119644;27;20425;-93
2022/11/18 16:19:07;;;;;;;3.95;2.22;;;;;;;;;;5141506;27;20373;-91
2022/11/18 16:21:34;;;;;;;4.93;2.00;;;;;;;;;;5141100;27;20370;-93
2022/11/18 16:24:04;;;;;;;2.73;1.63;;;;;;;;;;5139837;27;20372;-92
2022/11/18 16:26:30;;;;;;;2.67;1.70;;;;;;;;;;5142329;27;20540;-92
2022/11/18 16:28:57;;;;;;;3.45;1.85;;;;;;;;;;5148590;27;20399;-93
2022/11/18 16:31:42;;;;;;;3.03;1.60;;;;;;;;;;5126363;27;20405;-91
2022/11/18 16:34:12;;;;;;;2.70;1.57;;;;;;;;;;5138975;27;20435;-91
2022/11/18 16:36:40;;;;;;;3.50;1.85;;;;;;;;;;5123338;27;20387;-93
2022/11/18 16:39:31;;;;;;;6.07;2.33;;;;;;;;;;5126526;27;20388;-93
2022/11/18 16:42:20;;;;;;;3.45;1.95;;;;;;;;;;5147291;27;20849;-92
2022/11/18 16:44:46;;;;;;;3.20;2.33;;;;;;;;;;5133344;27;20437;-92
2022/11/18 16:47:12;;;;;;;2.75;1.88;;;;;;;;;;5148100;27;20721;-92
2022/11/18 16:49:43;;;;;;;2.97;1.47;;;;;;;;;;5133998;27;20822;-92
2022/11/18 16:52:09;;;;;;;2.33;1.52;;;;;;;;;;5145223;27;20446;-90
2022/11/18 16:54:35;;;;;;;3.08;1.70;;;;;;;;;;5147520;27;20839;-92
2022/11/18 16:57:04;;;;;;;2.17;1.70;;;;;;;;;;5135865;27;20371;-92
2022/11/18 16:59:55;;;;;;;2.13;1.50;;;;;;;;;;5141566;28;20413;-93
2022/11/18 17:02:22;;;;;;;2.00;1.10;;;;;;;;;;5134537;28;20385;-93
2022/11/18 17:05:20;;;;;;;1.92;1.10;;;;;;;;;;5128121;27;20389;-92
2022/11/18 17:08:09;;;;;;;2.45;1.10;;;;;;;;;;5126273;28;20375;-91
2022/11/18 17:14:07;;;;;;;2.05;1.10;;;;;;;;;;5014463;28;20430;-92
2022/11/18 17:25:59;;;;;;;2.88;1.27;;;;;;;;;;5093677;28;20839;-90
2022/11/18 17:43:02;;;;;;;3.05;1.52;;;;;;;;;;5401868;22;20469;-93
2022/11/18 17:57:50;;;;;;;2.28;1.80;;;;;;;;;;5112442;28;20372;-90
2022/11/18 18:00:16;;;;;;;4.75;2.00;;;;;;;;;;5120354;27;20380;-91
2022/11/18 18:02:42;;;;;;;4.13;2.60;;;;;;;;;;5131225;27;20381;-91
2022/11/18 18:05:08;;;;;;;3.88;2.20;;;;;;;;;;5136739;27;20386;-91